sensor_id;sensor_type;location;lat;lon;timestamp;P1;durP1;ratioP1;P2;durP2;ratioP2
41139;SDS011;26881;48.784;9.192;2024-01-30T00:00:56;9.10;;;6.23;;
41139;SDS011;26881;48.784;9.192;2024-01-30T00:06:19;12.73;;;7.43;;
41139;SDS011;26881;48.784;9.192;2024-01-30T00:11:42;11.00;;;6.83;;
41139;SDS011;26881;48.784;9.192;2024-01-30T00:17:04;14.53;;;8.47;;
41139;SDS011;26881;48.784;9.192;2024-01-30T00:22:26;13.43;;;7.70;;
41139;SDS011;26881;48.784;9.192;2024-01-30T00:27:48;15.87;;;7.37;;
41139;SDS011;26881;48.784;9.192;2024-01-30T00:33:10;13.37;;;6.70;;
41139;SDS011;26881;48.784;9.192;2024-01-30T00:38:32;11.23;;;7.10;;
41139;SDS011;26881;48.784;9.192;2024-01-30T00:43:54;9.87;;;6.87;;
41139;SDS011;26881;48.784;9.192;2024-01-30T00:49:16;11.37;;;7.03;;
41139;SDS011;26881;48.784;9.192;2024-01-30T00:54:38;9.60;;;6.53;;
41139;SDS011;26881;48.784;9.192;2024-01-30T01:00:00;11.13;;;6.87;;
41139;SDS011;26881;48.784;9.192;2024-01-30T01:05:22;11.90;;;6.63;;
41139;SDS011;26881;48.784;9.192;2024-01-30T01:10:43;13.03;;;6.30;;
41139;SDS011;26881;48.784;9.192;2024-01-30T01:16:05;11.27;;;6.97;;
41139;SDS011;26881;48.784;9.192;2024-01-30T01:21:27;11.77;;;7.20;;
41139;SDS011;26881;48.784;9.192;2024-01-30T01:26:49;12.77;;;7.13;;
41139;SDS011;26881;48.784;9.192;2024-01-30T01:32:11;9.90;;;6.70;;
41139;SDS011;26881;48.784;9.192;2024-01-30T01:37:33;9.33;;;6.13;;
41139;SDS011;26881;48.784;9.192;2024-01-30T01:42:55;15.20;;;7.33;;
41139;SDS011;26881;48.784;9.192;2024-01-30T01:48:17;14.27;;;7.33;;
41139;SDS011;26881;48.784;9.192;2024-01-30T01:53:39;15.00;;;7.70;;
41139;SDS011;26881;48.784;9.192;2024-01-30T01:59:05;15.37;;;8.03;;
41139;SDS011;26881;48.784;9.192;2024-01-30T02:04:29;10.67;;;7.00;;
41139;SDS011;26881;48.784;9.192;2024-01-30T02:09:51;13.47;;;6.73;;
41139;SDS011;26881;48.784;9.192;2024-01-30T02:15:13;9.70;;;6.70;;
41139;SDS011;26881;48.784;9.192;2024-01-30T02:20:35;9.90;;;5.93;;
41139;SDS011;26881;48.784;9.192;2024-01-30T02:25:59;8.60;;;5.93;;
41139;SDS011;26881;48.784;9.192;2024-01-30T02:31:21;11.50;;;6.60;;
41139;SDS011;26881;48.784;9.192;2024-01-30T02:36:42;12.30;;;5.73;;
41139;SDS011;26881;48.784;9.192;2024-01-30T02:42:05;11.30;;;8.00;;
41139;SDS011;26881;48.784;9.192;2024-01-30T02:47:27;8.93;;;7.10;;
41139;SDS011;26881;48.784;9.192;2024-01-30T02:52:49;12.60;;;7.57;;
41139;SDS011;26881;48.784;9.192;2024-01-30T02:58:11;15.17;;;8.83;;
41139;SDS011;26881;48.784;9.192;2024-01-30T03:03:32;14.83;;;8.33;;
41139;SDS011;26881;48.784;9.192;2024-01-30T03:08:56;16.40;;;7.97;;
41139;SDS011;26881;48.784;9.192;2024-01-30T03:14:18;12.53;;;8.20;;
41139;SDS011;26881;48.784;9.192;2024-01-30T03:19:40;12.93;;;6.77;;
41139;SDS011;26881;48.784;9.192;2024-01-30T03:25:02;8.87;;;6.40;;
41139;SDS011;26881;48.784;9.192;2024-01-30T03:30:24;10.73;;;7.20;;
41139;SDS011;26881;48.784;9.192;2024-01-30T03:35:46;9.97;;;6.77;;
41139;SDS011;26881;48.784;9.192;2024-01-30T03:41:08;10.23;;;7.23;;
41139;SDS011;26881;48.784;9.192;2024-01-30T03:46:31;9.13;;;6.90;;
41139;SDS011;26881;48.784;9.192;2024-01-30T03:51:53;11.33;;;6.93;;
41139;SDS011;26881;48.784;9.192;2024-01-30T03:57:15;10.87;;;7.67;;
41139;SDS011;26881;48.784;9.192;2024-01-30T04:02:36;9.73;;;6.53;;
41139;SDS011;26881;48.784;9.192;2024-01-30T04:07:58;12.47;;;7.70;;
41139;SDS011;26881;48.784;9.192;2024-01-30T04:13:21;12.03;;;7.80;;
41139;SDS011;26881;48.784;9.192;2024-01-30T04:18:42;12.73;;;8.33;;
41139;SDS011;26881;48.784;9.192;2024-01-30T04:24:05;12.97;;;7.97;;
41139;SDS011;26881;48.784;9.192;2024-01-30T04:29:27;13.77;;;8.10;;
41139;SDS011;26881;48.784;9.192;2024-01-30T04:34:48;12.77;;;8.63;;
41139;SDS011;26881;48.784;9.192;2024-01-30T04:40:10;12.03;;;7.93;;
41139;SDS011;26881;48.784;9.192;2024-01-30T04:45:33;12.17;;;8.00;;
41139;SDS011;26881;48.784;9.192;2024-01-30T04:50:54;12.23;;;7.90;;
41139;SDS011;26881;48.784;9.192;2024-01-30T04:56:17;10.27;;;6.53;;
41139;SDS011;26881;48.784;9.192;2024-01-30T05:01:39;11.57;;;7.17;;
41139;SDS011;26881;48.784;9.192;2024-01-30T05:07:01;10.40;;;7.40;;
41139;SDS011;26881;48.784;9.192;2024-01-30T05:12:23;11.67;;;7.20;;
41139;SDS011;26881;48.784;9.192;2024-01-30T05:17:45;11.07;;;7.17;;
41139;SDS011;26881;48.784;9.192;2024-01-30T05:23:07;12.53;;;6.97;;
41139;SDS011;26881;48.784;9.192;2024-01-30T05:28:29;9.70;;;7.07;;
41139;SDS011;26881;48.784;9.192;2024-01-30T05:33:51;10.73;;;6.97;;
41139;SDS011;26881;48.784;9.192;2024-01-30T05:39:13;10.27;;;7.30;;
41139;SDS011;26881;48.784;9.192;2024-01-30T05:44:36;14.47;;;7.13;;
41139;SDS011;26881;48.784;9.192;2024-01-30T05:49:57;11.67;;;7.80;;
41139;SDS011;26881;48.784;9.192;2024-01-30T05:55:19;12.03;;;7.87;;
41139;SDS011;26881;48.784;9.192;2024-01-30T06:00:42;13.73;;;8.90;;
41139;SDS011;26881;48.784;9.192;2024-01-30T06:06:04;16.50;;;8.70;;
41139;SDS011;26881;48.784;9.192;2024-01-30T06:11:26;12.20;;;8.95;;
41139;SDS011;26881;48.784;9.192;2024-01-30T06:16:48;11.47;;;7.90;;
41139;SDS011;26881;48.784;9.192;2024-01-30T06:22:10;13.30;;;7.63;;
41139;SDS011;26881;48.784;9.192;2024-01-30T06:27:33;11.57;;;7.93;;
41139;SDS011;26881;48.784;9.192;2024-01-30T06:32:55;13.37;;;8.03;;
41139;SDS011;26881;48.784;9.192;2024-01-30T06:38:17;13.93;;;9.77;;
41139;SDS011;26881;48.784;9.192;2024-01-30T06:43:38;12.23;;;8.63;;
41139;SDS011;26881;48.784;9.192;2024-01-30T06:49:00;12.50;;;8.20;;
41139;SDS011;26881;48.784;9.192;2024-01-30T06:54:22;15.90;;;7.87;;
41139;SDS011;26881;48.784;9.192;2024-01-30T06:59:44;14.53;;;8.53;;
41139;SDS011;26881;48.784;9.192;2024-01-30T07:05:06;13.97;;;7.97;;
41139;SDS011;26881;48.784;9.192;2024-01-30T07:10:28;12.93;;;8.27;;
41139;SDS011;26881;48.784;9.192;2024-01-30T07:15:50;13.40;;;8.50;;
41139;SDS011;26881;48.784;9.192;2024-01-30T07:21:12;15.33;;;9.00;;
41139;SDS011;26881;48.784;9.192;2024-01-30T07:26:34;25.93;;;13.90;;
41139;SDS011;26881;48.784;9.192;2024-01-30T07:31:57;19.60;;;10.73;;
41139;SDS011;26881;48.784;9.192;2024-01-30T07:37:19;19.03;;;10.47;;
41139;SDS011;26881;48.784;9.192;2024-01-30T07:42:42;19.30;;;10.60;;
41139;SDS011;26881;48.784;9.192;2024-01-30T07:48:07;13.30;;;9.80;;
41139;SDS011;26881;48.784;9.192;2024-01-30T07:53:29;13.27;;;9.07;;
41139;SDS011;26881;48.784;9.192;2024-01-30T07:58:51;13.70;;;8.60;;
41139;SDS011;26881;48.784;9.192;2024-01-30T08:04:12;13.43;;;9.27;;
41139;SDS011;26881;48.784;9.192;2024-01-30T08:09:34;14.83;;;8.60;;
41139;SDS011;26881;48.784;9.192;2024-01-30T08:14:56;14.63;;;9.07;;
41139;SDS011;26881;48.784;9.192;2024-01-30T08:20:18;12.83;;;9.03;;
41139;SDS011;26881;48.784;9.192;2024-01-30T08:25:40;10.70;;;8.40;;
41139;SDS011;26881;48.784;9.192;2024-01-30T08:31:02;12.27;;;8.70;;
41139;SDS011;26881;48.784;9.192;2024-01-30T08:36:24;14.37;;;8.93;;
41139;SDS011;26881;48.784;9.192;2024-01-30T08:41:46;15.13;;;10.10;;
41139;SDS011;26881;48.784;9.192;2024-01-30T08:47:08;13.60;;;9.73;;
41139;SDS011;26881;48.784;9.192;2024-01-30T08:52:30;11.50;;;8.43;;
41139;SDS011;26881;48.784;9.192;2024-01-30T08:57:52;12.30;;;9.00;;
41139;SDS011;26881;48.784;9.192;2024-01-30T09:03:16;13.83;;;9.03;;
41139;SDS011;26881;48.784;9.192;2024-01-30T09:08:39;14.27;;;8.47;;
41139;SDS011;26881;48.784;9.192;2024-01-30T09:14:01;14.53;;;8.70;;
41139;SDS011;26881;48.784;9.192;2024-01-30T09:19:22;11.20;;;8.03;;
41139;SDS011;26881;48.784;9.192;2024-01-30T09:24:44;12.53;;;8.43;;
41139;SDS011;26881;48.784;9.192;2024-01-30T09:30:06;11.60;;;8.33;;
41139;SDS011;26881;48.784;9.192;2024-01-30T09:35:29;12.80;;;8.50;;
41139;SDS011;26881;48.784;9.192;2024-01-30T09:40:53;12.52;;;8.07;;
41139;SDS011;26881;48.784;9.192;2024-01-30T09:46:20;12.88;;;8.70;;
41139;SDS011;26881;48.784;9.192;2024-01-30T09:51:44;10.88;;;7.72;;
41139;SDS011;26881;48.784;9.192;2024-01-30T09:57:07;10.60;;;8.00;;
41139;SDS011;26881;48.784;9.192;2024-01-30T10:02:31;11.77;;;8.60;;
41139;SDS011;26881;48.784;9.192;2024-01-30T10:07:53;10.02;;;8.10;;
41139;SDS011;26881;48.784;9.192;2024-01-30T10:13:19;12.90;;;8.07;;
41139;SDS011;26881;48.784;9.192;2024-01-30T10:18:41;14.80;;;8.13;;
41139;SDS011;26881;48.784;9.192;2024-01-30T10:24:05;12.25;;;8.70;;
41139;SDS011;26881;48.784;9.192;2024-01-30T10:29:28;9.52;;;7.93;;
41139;SDS011;26881;48.784;9.192;2024-01-30T10:34:50;11.23;;;8.88;;
41139;SDS011;26881;48.784;9.192;2024-01-30T10:40:15;14.00;;;8.65;;
41139;SDS011;26881;48.784;9.192;2024-01-30T10:45:37;10.68;;;8.73;;
41139;SDS011;26881;48.784;9.192;2024-01-30T10:51:02;12.73;;;8.30;;
41139;SDS011;26881;48.784;9.192;2024-01-30T10:56:26;17.42;;;8.27;;
41139;SDS011;26881;48.784;9.192;2024-01-30T11:01:49;12.23;;;8.57;;
41139;SDS011;26881;48.784;9.192;2024-01-30T11:07:18;10.40;;;8.73;;
41139;SDS011;26881;48.784;9.192;2024-01-30T11:12:45;13.35;;;9.35;;
41139;SDS011;26881;48.784;9.192;2024-01-30T11:18:08;13.18;;;8.48;;
41139;SDS011;26881;48.784;9.192;2024-01-30T11:23:30;12.55;;;8.57;;
41139;SDS011;26881;48.784;9.192;2024-01-30T11:28:54;12.15;;;8.85;;
41139;SDS011;26881;48.784;9.192;2024-01-30T11:34:17;15.30;;;8.77;;
41139;SDS011;26881;48.784;9.192;2024-01-30T11:39:40;14.18;;;10.00;;
41139;SDS011;26881;48.784;9.192;2024-01-30T11:45:04;18.45;;;9.43;;
41139;SDS011;26881;48.784;9.192;2024-01-30T11:50:27;14.30;;;9.00;;
41139;SDS011;26881;48.784;9.192;2024-01-30T11:55:50;13.75;;;9.90;;
41139;SDS011;26881;48.784;9.192;2024-01-30T12:01:12;14.45;;;9.55;;
41139;SDS011;26881;48.784;9.192;2024-01-30T12:06:34;16.45;;;10.35;;
41139;SDS011;26881;48.784;9.192;2024-01-30T12:11:56;14.77;;;9.90;;
41139;SDS011;26881;48.784;9.192;2024-01-30T12:17:29;14.85;;;9.90;;
41139;SDS011;26881;48.784;9.192;2024-01-30T12:22:52;18.45;;;9.60;;
41139;SDS011;26881;48.784;9.192;2024-01-30T12:28:15;19.58;;;10.07;;
41139;SDS011;26881;48.784;9.192;2024-01-30T12:33:37;14.20;;;9.00;;
41139;SDS011;26881;48.784;9.192;2024-01-30T12:38:59;15.20;;;9.13;;
41139;SDS011;26881;48.784;9.192;2024-01-30T12:44:22;13.30;;;9.15;;
41139;SDS011;26881;48.784;9.192;2024-01-30T12:49:44;17.30;;;9.10;;
41139;SDS011;26881;48.784;9.192;2024-01-30T12:55:06;19.25;;;9.82;;
41139;SDS011;26881;48.784;9.192;2024-01-30T13:00:28;15.57;;;9.73;;
41139;SDS011;26881;48.784;9.192;2024-01-30T13:05:50;18.17;;;9.10;;
41139;SDS011;26881;48.784;9.192;2024-01-30T13:11:12;17.50;;;9.50;;
41139;SDS011;26881;48.784;9.192;2024-01-30T13:16:42;14.70;;;8.80;;
41139;SDS011;26881;48.784;9.192;2024-01-30T13:22:05;17.98;;;8.27;;
41139;SDS011;26881;48.784;9.192;2024-01-30T13:27:27;16.05;;;8.05;;
41139;SDS011;26881;48.784;9.192;2024-01-30T13:32:49;12.52;;;8.55;;
41139;SDS011;26881;48.784;9.192;2024-01-30T13:38:11;17.27;;;8.48;;
41139;SDS011;26881;48.784;9.192;2024-01-30T13:43:33;15.00;;;8.65;;
41139;SDS011;26881;48.784;9.192;2024-01-30T13:48:55;15.35;;;8.25;;
41139;SDS011;26881;48.784;9.192;2024-01-30T13:54:17;19.95;;;8.65;;
41139;SDS011;26881;48.784;9.192;2024-01-30T13:59:39;20.90;;;9.45;;
41139;SDS011;26881;48.784;9.192;2024-01-30T14:05:03;20.80;;;8.23;;
41139;SDS011;26881;48.784;9.192;2024-01-30T14:10:26;15.60;;;9.02;;
41139;SDS011;26881;48.784;9.192;2024-01-30T14:15:48;17.02;;;9.25;;
41139;SDS011;26881;48.784;9.192;2024-01-30T14:21:13;16.45;;;8.45;;
41139;SDS011;26881;48.784;9.192;2024-01-30T14:26:35;12.88;;;9.02;;
41139;SDS011;26881;48.784;9.192;2024-01-30T14:31:58;18.67;;;8.23;;
41139;SDS011;26881;48.784;9.192;2024-01-30T14:37:20;21.25;;;9.63;;
41139;SDS011;26881;48.784;9.192;2024-01-30T14:42:43;16.42;;;8.90;;
41139;SDS011;26881;48.784;9.192;2024-01-30T14:48:04;20.08;;;8.48;;
41139;SDS011;26881;48.784;9.192;2024-01-30T14:53:27;18.63;;;9.68;;
41139;SDS011;26881;48.784;9.192;2024-01-30T14:58:49;17.35;;;8.35;;
41139;SDS011;26881;48.784;9.192;2024-01-30T15:04:10;14.60;;;8.43;;
41139;SDS011;26881;48.784;9.192;2024-01-30T15:09:32;14.10;;;8.60;;
41139;SDS011;26881;48.784;9.192;2024-01-30T15:14:55;16.33;;;8.63;;
41139;SDS011;26881;48.784;9.192;2024-01-30T15:20:17;20.55;;;9.63;;
41139;SDS011;26881;48.784;9.192;2024-01-30T15:25:40;20.42;;;10.15;;
41139;SDS011;26881;48.784;9.192;2024-01-30T15:31:02;26.15;;;10.50;;
41139;SDS011;26881;48.784;9.192;2024-01-30T15:36:24;19.90;;;10.45;;
41139;SDS011;26881;48.784;9.192;2024-01-30T15:41:46;19.00;;;10.07;;
41139;SDS011;26881;48.784;9.192;2024-01-30T15:47:08;18.92;;;11.60;;
41139;SDS011;26881;48.784;9.192;2024-01-30T15:52:30;24.40;;;11.85;;
41139;SDS011;26881;48.784;9.192;2024-01-30T15:57:52;34.00;;;11.90;;
41139;SDS011;26881;48.784;9.192;2024-01-30T16:03:14;22.55;;;11.93;;
41139;SDS011;26881;48.784;9.192;2024-01-30T16:08:36;29.77;;;13.10;;
41139;SDS011;26881;48.784;9.192;2024-01-30T16:13:58;25.65;;;12.35;;
41139;SDS011;26881;48.784;9.192;2024-01-30T16:19:20;27.75;;;12.38;;
41139;SDS011;26881;48.784;9.192;2024-01-30T16:24:42;28.30;;;12.80;;
41139;SDS011;26881;48.784;9.192;2024-01-30T16:30:04;26.48;;;12.75;;
41139;SDS011;26881;48.784;9.192;2024-01-30T16:35:27;29.13;;;11.85;;
41139;SDS011;26881;48.784;9.192;2024-01-30T16:41:07;22.17;;;12.30;;
41139;SDS011;26881;48.784;9.192;2024-01-30T16:46:29;30.50;;;13.50;;
41139;SDS011;26881;48.784;9.192;2024-01-30T16:51:52;28.85;;;12.77;;
41139;SDS011;26881;48.784;9.192;2024-01-30T16:57:14;22.25;;;12.57;;
41139;SDS011;26881;48.784;9.192;2024-01-30T17:02:35;19.48;;;11.60;;
41139;SDS011;26881;48.784;9.192;2024-01-30T17:07:57;24.97;;;12.70;;
41139;SDS011;26881;48.784;9.192;2024-01-30T17:13:25;23.00;;;12.37;;
41139;SDS011;26881;48.784;9.192;2024-01-30T17:18:47;25.07;;;12.57;;
41139;SDS011;26881;48.784;9.192;2024-01-30T17:24:09;29.77;;;12.40;;
41139;SDS011;26881;48.784;9.192;2024-01-30T17:29:32;19.00;;;10.87;;
41139;SDS011;26881;48.784;9.192;2024-01-30T17:34:55;20.17;;;9.57;;
41139;SDS011;26881;48.784;9.192;2024-01-30T17:40:17;16.73;;;8.93;;
41139;SDS011;26881;48.784;9.192;2024-01-30T17:45:40;14.73;;;8.07;;
41139;SDS011;26881;48.784;9.192;2024-01-30T17:51:02;15.30;;;7.25;;
41139;SDS011;26881;48.784;9.192;2024-01-30T17:56:24;15.63;;;7.67;;
41139;SDS011;26881;48.784;9.192;2024-01-30T18:01:46;16.50;;;7.23;;
41139;SDS011;26881;48.784;9.192;2024-01-30T18:07:09;14.63;;;7.80;;
41139;SDS011;26881;48.784;9.192;2024-01-30T18:12:33;18.05;;;9.90;;
41139;SDS011;26881;48.784;9.192;2024-01-30T18:17:55;20.67;;;8.93;;
41139;SDS011;26881;48.784;9.192;2024-01-30T18:23:17;13.05;;;9.15;;
41139;SDS011;26881;48.784;9.192;2024-01-30T18:28:40;16.40;;;8.80;;
41139;SDS011;26881;48.784;9.192;2024-01-30T18:34:01;15.18;;;9.43;;
41139;SDS011;26881;48.784;9.192;2024-01-30T18:39:23;21.83;;;11.73;;
41139;SDS011;26881;48.784;9.192;2024-01-30T18:44:45;19.30;;;9.43;;
41139;SDS011;26881;48.784;9.192;2024-01-30T18:50:07;22.65;;;11.35;;
41139;SDS011;26881;48.784;9.192;2024-01-30T18:55:29;22.90;;;11.10;;
41139;SDS011;26881;48.784;9.192;2024-01-30T19:00:51;20.00;;;9.85;;
41139;SDS011;26881;48.784;9.192;2024-01-30T19:06:14;18.40;;;9.57;;
41139;SDS011;26881;48.784;9.192;2024-01-30T19:11:36;14.90;;;7.73;;
41139;SDS011;26881;48.784;9.192;2024-01-30T19:16:58;13.13;;;6.83;;
41139;SDS011;26881;48.784;9.192;2024-01-30T19:22:20;13.80;;;6.82;;
41139;SDS011;26881;48.784;9.192;2024-01-30T19:27:42;14.05;;;6.32;;
41139;SDS011;26881;48.784;9.192;2024-01-30T19:33:04;11.77;;;5.65;;
41139;SDS011;26881;48.784;9.192;2024-01-30T19:38:26;11.55;;;5.95;;
41139;SDS011;26881;48.784;9.192;2024-01-30T19:43:49;8.85;;;6.60;;
41139;SDS011;26881;48.784;9.192;2024-01-30T19:49:11;12.95;;;7.35;;
41139;SDS011;26881;48.784;9.192;2024-01-30T19:54:33;11.38;;;7.22;;
41139;SDS011;26881;48.784;9.192;2024-01-30T19:59:55;12.27;;;7.60;;
41139;SDS011;26881;48.784;9.192;2024-01-30T20:05:17;15.82;;;6.68;;
41139;SDS011;26881;48.784;9.192;2024-01-30T20:10:40;10.13;;;7.20;;
41139;SDS011;26881;48.784;9.192;2024-01-30T20:16:02;16.25;;;8.93;;
41139;SDS011;26881;48.784;9.192;2024-01-30T20:21:24;11.43;;;7.17;;
41139;SDS011;26881;48.784;9.192;2024-01-30T20:26:46;15.80;;;7.43;;
41139;SDS011;26881;48.784;9.192;2024-01-30T20:32:08;13.37;;;8.83;;
41139;SDS011;26881;48.784;9.192;2024-01-30T20:37:29;14.52;;;7.65;;
41139;SDS011;26881;48.784;9.192;2024-01-30T20:42:52;13.50;;;8.23;;
41139;SDS011;26881;48.784;9.192;2024-01-30T20:48:14;14.07;;;8.33;;
41139;SDS011;26881;48.784;9.192;2024-01-30T20:53:36;14.20;;;8.27;;
41139;SDS011;26881;48.784;9.192;2024-01-30T20:58:58;18.58;;;9.20;;
41139;SDS011;26881;48.784;9.192;2024-01-30T21:04:20;14.70;;;8.20;;
41139;SDS011;26881;48.784;9.192;2024-01-30T21:09:42;10.90;;;8.00;;
41139;SDS011;26881;48.784;9.192;2024-01-30T21:15:04;13.93;;;8.67;;
41139;SDS011;26881;48.784;9.192;2024-01-30T21:20:27;22.07;;;12.47;;
41139;SDS011;26881;48.784;9.192;2024-01-30T21:25:49;16.77;;;9.27;;
41139;SDS011;26881;48.784;9.192;2024-01-30T21:31:11;16.40;;;9.27;;
41139;SDS011;26881;48.784;9.192;2024-01-30T21:36:35;19.20;;;10.97;;
41139;SDS011;26881;48.784;9.192;2024-01-30T21:41:58;14.57;;;9.07;;
41139;SDS011;26881;48.784;9.192;2024-01-30T21:47:23;16.30;;;10.27;;
41139;SDS011;26881;48.784;9.192;2024-01-30T21:52:46;15.50;;;9.20;;
41139;SDS011;26881;48.784;9.192;2024-01-30T21:58:08;15.03;;;9.20;;
41139;SDS011;26881;48.784;9.192;2024-01-30T22:03:30;17.27;;;10.27;;
41139;SDS011;26881;48.784;9.192;2024-01-30T22:08:52;15.20;;;9.68;;
41139;SDS011;26881;48.784;9.192;2024-01-30T22:14:14;16.03;;;9.47;;
41139;SDS011;26881;48.784;9.192;2024-01-30T22:19:38;17.80;;;10.03;;
41139;SDS011;26881;48.784;9.192;2024-01-30T22:25:01;15.53;;;9.80;;
41139;SDS011;26881;48.784;9.192;2024-01-30T22:30:23;14.50;;;9.77;;
41139;SDS011;26881;48.784;9.192;2024-01-30T22:35:45;16.83;;;10.60;;
41139;SDS011;26881;48.784;9.192;2024-01-30T22:41:07;17.97;;;11.33;;
41139;SDS011;26881;48.784;9.192;2024-01-30T22:46:29;19.37;;;12.07;;
41139;SDS011;26881;48.784;9.192;2024-01-30T22:51:51;21.93;;;12.27;;
41139;SDS011;26881;48.784;9.192;2024-01-30T22:57:12;14.97;;;10.17;;
41139;SDS011;26881;48.784;9.192;2024-01-30T23:02:34;16.92;;;10.57;;
41139;SDS011;26881;48.784;9.192;2024-01-30T23:07:56;19.85;;;11.25;;
41139;SDS011;26881;48.784;9.192;2024-01-30T23:13:19;19.27;;;11.30;;
41139;SDS011;26881;48.784;9.192;2024-01-30T23:18:41;20.00;;;12.07;;
41139;SDS011;26881;48.784;9.192;2024-01-30T23:24:03;23.03;;;12.20;;
41139;SDS011;26881;48.784;9.192;2024-01-30T23:29:26;23.90;;;11.48;;
41139;SDS011;26881;48.784;9.192;2024-01-30T23:34:48;23.70;;;11.77;;
41139;SDS011;26881;48.784;9.192;2024-01-30T23:40:11;22.02;;;11.70;;
41139;SDS011;26881;48.784;9.192;2024-01-30T23:45:34;23.97;;;13.10;;
41139;SDS011;26881;48.784;9.192;2024-01-30T23:50:56;25.23;;;13.73;;
41139;SDS011;26881;48.784;9.192;2024-01-30T23:56:18;23.23;;;12.80;;
